Time;durP1;ratioP1;P1;durP2;ratioP2;P2;SDS_P1;SDS_P2;PMS_P1;PMS_P2;Temp;Humidity;BMP_temperature;BMP_pressure;BME280_temperature;BME280_humidity;BME280_pressure;Samples;Min_cycle;Max_cycle;Signal;HPM_P1;HPM_P2
2022/05/02 00:00:34;;;;;;;;;;;;;;;6.99;100.00;101597.19;5081350;28;19935;-76
2022/05/02 00:03:02;;;;;;;;;;;;;;;7.00;100.00;101598.00;5073818;28;19935;-77
2022/05/02 00:05:31;;;;;;;;;;;;;;;6.94;100.00;101592.47;5074417;28;20388;-76
2022/05/02 00:08:00;;;;;;;;;;;;;;;6.90;100.00;101593.16;5075163;28;19928;-77
2022/05/02 00:10:29;;;;;;;;;;;;;;;6.87;100.00;101590.94;5064505;28;19932;-77
2022/05/02 00:12:57;;;;;;;;;;;;;;;6.93;100.00;101584.56;5087867;28;20288;-76
2022/05/02 00:15:31;;;;;;;;;;;;;;;6.91;100.00;101586.72;5093749;28;19927;-76
2022/05/02 00:17:59;;;;;;;;;;;;;;;6.90;100.00;101591.28;5073147;28;19932;-79
2022/05/02 00:20:29;;;;;;;;;;;;;;;6.85;100.00;101587.63;5075617;28;20454;-78
2022/05/02 00:22:57;;;;;;;;;;;;;;;6.83;100.00;101587.03;5092802;28;19924;-78
2022/05/02 00:25:27;;;;;;;;;;;;;;;6.85;100.00;101584.91;5090374;28;19931;-79
2022/05/02 00:27:55;;;;;;;;;;;;;;;6.78;100.00;101579.59;5072220;28;19924;-78
2022/05/02 00:30:23;;;;;;;;;;;;;;;6.83;100.00;101579.75;5073462;28;20291;-79
2022/05/02 00:32:52;;;;;;;;;;;;;;;6.80;100.00;101580.22;5073905;28;19951;-78
2022/05/02 00:35:25;;;;;;;;;;;;;;;6.86;100.00;101578.47;5092195;28;19935;-79
2022/05/02 00:37:53;;;;;;;;;;;;;;;6.76;100.00;101579.03;5076780;28;19935;-79
2022/05/02 00:40:28;;;;;;;;;;;;;;;6.93;100.00;101576.47;5073382;28;19927;-79
2022/05/02 00:43:01;;;;;;;;;;;;;;;6.96;100.00;101584.09;5084362;28;19931;-79
2022/05/02 00:45:29;;;;;;;;;;;;;;;6.86;100.00;101579.28;5070733;28;19932;-78
2022/05/02 00:47:58;;;;;;;;;;;;;;;6.96;100.00;101575.97;5094475;28;19931;-79
2022/05/02 00:50:31;;;;;;;;;;;;;;;6.95;100.00;101580.59;5081733;28;19928;-79
2022/05/02 00:53:08;;;;;;;;;;;;;;;7.03;100.00;101574.00;5091167;28;20352;-78
2022/05/02 00:55:38;;;;;;;;;;;;;;;7.05;100.00;101579.19;5103728;27;20415;-78
2022/05/02 00:58:07;;;;;;;;;;;;;;;7.10;100.00;101577.44;5092986;28;19931;-78
2022/05/02 01:00:35;;;;;;;;;;;;;;;7.02;100.00;101576.97;5087562;28;19935;-77
2022/05/02 01:03:09;;;;;;;;;;;;;;;6.87;100.00;101582.81;5091939;28;19932;-77
2022/05/02 01:07:08;;;;;;;;;;;;;;;6.68;100.00;101579.34;5106920;28;19947;-77
2022/05/02 01:08:32;;;;;;;;;;;;;;;6.44;100.00;101573.88;5071374;28;19928;-77
2022/05/02 01:11:01;;;;;;;;;;;;;;;6.54;100.00;101573.31;5068175;28;19928;-78
2022/05/02 01:13:34;;;;;;;;;;;;;;;6.64;100.00;101565.47;5092539;28;19928;-77
2022/05/02 01:16:14;;;;;;;;;;;;;;;6.66;100.00;101566.06;5086122;28;19924;-77
2022/05/02 01:18:42;;;;;;;;;;;;;;;6.64;100.00;101565.47;5102828;28;19924;-78
2022/05/02 01:21:17;;;;;;;;;;;;;;;6.63;100.00;101564.66;5095133;28;19928;-78
2022/05/02 01:23:51;;;;;;;;;;;;;;;6.75;100.00;101569.25;5079419;28;19930;-78
2022/05/02 01:26:19;;;;;;;;;;;;;;;6.72;100.00;101565.13;5074925;28;19924;-77
2022/05/02 01:28:48;;;;;;;;;;;;;;;6.43;100.00;101567.63;5085876;28;19932;-78
2022/05/02 01:31:21;;;;;;;;;;;;;;;6.32;100.00;101562.19;5072629;28;19928;-78
2022/05/02 01:33:54;;;;;;;;;;;;;;;6.36;100.00;101561.50;5075564;28;19928;-79
2022/05/02 01:36:24;;;;;;;;;;;;;;;6.39;100.00;101563.75;5074454;28;20368;-78
2022/05/02 01:38:53;;;;;;;;;;;;;;;6.42;100.00;101560.59;5072074;28;19924;-78
2022/05/02 01:41:21;;;;;;;;;;;;;;;6.41;100.00;101558.94;5070648;28;19932;-78
2022/05/02 01:43:54;;;;;;;;;;;;;;;6.35;100.00;101559.84;5071570;28;19931;-78
2022/05/02 01:46:27;;;;;;;;;;;;;;;6.32;100.00;101554.91;5085240;28;19928;-79
2022/05/02 01:48:55;;;;;;;;;;;;;;;6.10;100.00;101563.53;5072040;28;19928;-78
2022/05/02 01:51:24;;;;;;;;;;;;;;;6.16;100.00;101559.09;5071907;28;20308;-78
2022/05/02 01:53:57;;;;;;;;;;;;;;;6.06;100.00;101548.84;5090192;28;19928;-77
2022/05/02 01:56:25;;;;;;;;;;;;;;;6.08;100.00;101545.91;5087956;28;19936;-77
2022/05/02 01:58:58;;;;;;;;;;;;;;;6.13;100.00;101544.16;5068151;28;19935;-78
2022/05/02 02:01:31;;;;;;;;;;;;;;;6.15;100.00;101548.50;5069408;28;19928;-77
2022/05/02 02:03:59;;;;;;;;;;;;;;;6.20;100.00;101548.63;5077416;28;19931;-77
2022/05/02 02:06:33;;;;;;;;;;;;;;;6.30;100.00;101551.63;5090377;28;19928;-78
2022/05/02 02:09:06;;;;;;;;;;;;;;;6.35;100.00;101542.81;5098716;28;19928;-77
2022/05/02 02:11:39;;;;;;;;;;;;;;;6.35;100.00;101542.81;5071502;28;19928;-77
2022/05/02 02:14:07;;;;;;;;;;;;;;;6.28;100.00;101548.31;5068399;28;19928;-77
2022/05/02 02:16:35;;;;;;;;;;;;;;;6.19;100.00;101550.53;5088725;28;19935;-78
2022/05/02 02:19:04;;;;;;;;;;;;;;;6.15;100.00;101546.63;5096292;28;19924;-78
2022/05/02 02:21:38;;;;;;;;;;;;;;;6.00;100.00;101554.31;5054245;28;19931;-79
2022/05/02 02:24:11;;;;;;;;;;;;;;;6.02;100.00;101544.94;5089760;28;19930;-78
2022/05/02 02:26:44;;;;;;;;;;;;;;;6.07;100.00;101544.25;5063104;28;19928;-77
2022/05/02 02:29:12;;;;;;;;;;;;;;;5.94;100.00;101535.22;5099334;28;20616;-78
2022/05/02 02:31:40;;;;;;;;;;;;;;;5.99;100.00;101549.97;5075502;28;20379;-78
2022/05/02 02:34:13;;;;;;;;;;;;;;;6.01;100.00;101550.53;5097801;28;20268;-78
2022/05/02 02:36:47;;;;;;;;;;;;;;;6.00;100.00;101541.63;5097526;28;20375;-78
2022/05/02 02:39:20;;;;;;;;;;;;;;;6.05;100.00;101541.78;5073072;28;19970;-79
2022/05/02 02:41:53;;;;;;;;;;;;;;;6.08;100.00;101551.31;5070448;28;19928;-78
2022/05/02 02:44:26;;;;;;;;;;;;;;;6.07;100.00;101553.16;5089575;28;19924;-78
2022/05/02 02:46:54;;;;;;;;;;;;;;;6.07;100.00;101547.75;5074724;28;19931;-78
2022/05/02 02:49:27;;;;;;;;;;;;;;;6.10;100.00;101551.88;5103542;28;19924;-79
2022/05/02 02:52:01;;;;;;;;;;;;;;;6.04;100.00;101540.13;5108985;28;19935;-79
2022/05/02 02:54:29;;;;;;;;;;;;;;;6.02;100.00;101546.78;5094038;28;19932;-78
2022/05/02 02:56:57;;;;;;;;;;;;;;;6.09;100.00;101550.22;5104975;28;19953;-78
2022/05/02 02:59:30;;;;;;;;;;;;;;;6.08;100.00;101554.00;5095726;28;19935;-78
2022/05/02 03:02:06;;;;;;;;;;;;;;;6.10;100.00;101543.78;5085183;28;19928;-78
2022/05/02 03:07:21;;;;;;;;;;;;;;;6.03;100.00;101549.25;5093381;28;19932;-78
2022/05/02 03:09:49;;;;;;;;;;;;;;;6.06;100.00;101550.69;5073208;28;19955;-78
2022/05/02 03:12:17;;;;;;;;;;;;;;;6.06;100.00;101556.09;5093158;28;19943;-78
2022/05/02 03:14:50;;;;;;;;;;;;;;;6.06;100.00;101548.00;5088186;28;20323;-78
2022/05/02 03:17:23;;;;;;;;;;;;;;;6.08;100.00;101554.00;5075391;28;19932;-78
2022/05/02 03:19:51;;;;;;;;;;;;;;;5.99;100.00;101547.25;5095898;28;19928;-78
2022/05/02 03:22:25;;;;;;;;;;;;;;;6.11;100.00;101545.44;5094696;28;19929;-78
2022/05/02 03:24:58;;;;;;;;;;;;;;;6.12;100.00;101550.59;5070262;28;19928;-78
2022/05/02 03:27:31;;;;;;;;;;;;;;;6.08;100.00;101554.81;5073919;28;20295;-77
2022/05/02 03:30:04;;;;;;;;;;;;;;;6.04;100.00;101547.41;5072090;28;19928;-79
2022/05/02 03:32:37;;;;;;;;;;;;;;;6.04;100.00;101540.13;5074710;28;19927;-78
2022/05/02 03:35:06;;;;;;;;;;;;;;;6.02;100.00;101544.94;5073610;28;19928;-78
2022/05/02 03:37:40;;;;;;;;;;;;;;;6.02;100.00;101552.19;5074053;28;19928;-77
2022/05/02 03:40:08;;;;;;;;;;;;;;;5.85;100.00;101552.78;5074287;28;19935;-78
2022/05/02 03:42:37;;;;;;;;;;;;;;;5.82;100.00;101560.53;5081980;28;19931;-79
2022/05/02 03:45:10;;;;;;;;;;;;;;;5.82;100.00;101557.84;5101774;28;20357;-78
2022/05/02 03:47:43;;;;;;;;;;;;;;;5.76;100.00;101556.88;5111714;27;19934;-78
2022/05/02 03:50:16;;;;;;;;;;;;;;;5.74;100.00;101558.94;5068751;28;19931;-79
2022/05/02 03:52:46;;;;;;;;;;;;;;;5.75;100.00;101556.03;5074224;28;20040;-78
2022/05/02 03:55:14;;;;;;;;;;;;;;;5.86;100.00;101549.03;5067887;28;19929;-77
2022/05/02 03:57:42;;;;;;;;;;;;;;;5.92;100.00;101552.72;5105098;28;19928;-78
2022/05/02 04:00:10;;;;;;;;;;;;;;;5.96;100.00;101545.81;5074675;28;19955;-78
2022/05/02 04:02:41;;;;;;;;;;;;;;;5.99;100.00;101555.38;5073160;28;20406;-77
2022/05/02 04:05:09;;;;;;;;;;;;;;;6.02;100.00;101555.75;5095186;28;19935;-79
2022/05/02 04:07:42;;;;;;;;;;;;;;;6.09;100.00;101544.81;5073503;28;19935;-78
2022/05/02 04:10:17;;;;;;;;;;;;;;;6.06;100.00;101550.69;5090962;28;19935;-78
2022/05/02 04:12:49;;;;;;;;;;;;;;;6.07;100.00;101542.34;5090264;28;20045;-78
2022/05/02 04:15:18;;;;;;;;;;;;;;;6.09;100.00;101547.53;5090720;28;20280;-78
2022/05/02 04:17:46;;;;;;;;;;;;;;;6.17;100.00;101538.28;5073014;28;19927;-78
2022/05/02 04:20:19;;;;;;;;;;;;;;;6.26;100.00;101545.84;5091328;28;19935;-77
2022/05/02 04:22:52;;;;;;;;;;;;;;;6.33;100.00;101544.94;5073731;28;19928;-78
2022/05/02 04:25:26;;;;;;;;;;;;;;;6.35;100.00;101548.22;5073039;28;19939;-78
2022/05/02 04:27:59;;;;;;;;;;;;;;;6.33;100.00;101548.44;5091960;28;19935;-77
2022/05/02 04:30:32;;;;;;;;;;;;;;;6.39;100.00;101542.13;5085364;28;19928;-77
2022/05/02 04:33:01;;;;;;;;;;;;;;;6.46;100.00;101542.03;5091178;28;19928;-78
2022/05/02 04:35:29;;;;;;;;;;;;;;;6.51;100.00;101541.34;5089948;28;19942;-77
2022/05/02 04:37:58;;;;;;;;;;;;;;;6.47;100.00;101538.25;5111550;28;19931;-78
2022/05/02 04:40:33;;;;;;;;;;;;;;;6.54;100.00;101540.88;5071551;28;19939;-77
2022/05/02 04:43:01;;;;;;;;;;;;;;;6.57;100.00;101548.53;5089476;28;19935;-78
2022/05/02 04:45:29;;;;;;;;;;;;;;;6.67;100.00;101546.09;5107062;28;19924;-78
2022/05/02 04:47:57;;;;;;;;;;;;;;;6.71;100.00;101546.44;5091484;28;19935;-78
2022/05/02 04:50:25;;;;;;;;;;;;;;;6.75;100.00;101544.91;5074661;28;19924;-78
2022/05/02 04:52:58;;;;;;;;;;;;;;;6.76;100.00;101549.25;5091774;28;19928;-78
2022/05/02 04:55:26;;;;;;;;;;;;;;;6.79;100.00;101546.94;5099715;28;19935;-78
2022/05/02 04:57:55;;;;;;;;;;;;;;;6.91;100.00;101552.34;5111357;28;19928;-78
2022/05/02 05:00:23;;;;;;;;;;;;;;;6.95;100.00;101552.72;5108172;28;19932;-78
2022/05/02 05:02:56;;;;;;;;;;;;;;;7.02;100.00;101552.59;5073857;28;20285;-78
2022/05/02 05:05:29;;;;;;;;;;;;;;;7.09;100.00;101548.72;5106395;28;19935;-78
2022/05/02 05:07:57;;;;;;;;;;;;;;;7.19;100.00;101545.41;5091207;28;19935;-78
2022/05/02 05:10:30;;;;;;;;;;;;;;;7.27;100.00;101542.34;5072534;28;19931;-78
2022/05/02 05:13:06;;;;;;;;;;;;;;;7.36;100.00;101542.00;5076059;28;19935;-78
2022/05/02 05:18:35;;;;;;;;;;;;;;;7.42;100.00;101544.56;5079102;28;19935;-79
2022/05/02 05:21:03;;;;;;;;;;;;;;;7.54;100.00;101536.44;5106207;28;19932;-78
2022/05/02 05:23:48;;;;;;;;;;;;;;;7.61;100.00;101536.28;5091032;28;19928;-78
2022/05/02 05:26:17;;;;;;;;;;;;;;;7.67;100.00;101532.63;5072659;28;19935;-78
2022/05/02 05:28:57;;;;;;;;;;;;;;;7.69;100.00;101533.22;5091030;28;19939;-79
2022/05/02 05:31:39;;;;;;;;;;;;;;;7.76;100.00;101524.94;5081418;28;19928;-78
2022/05/02 05:34:08;;;;;;;;;;;;;;;7.84;100.00;101527.28;5070954;28;19928;-78
2022/05/02 05:36:46;;;;;;;;;;;;;;;7.96;100.00;101527.25;5052855;28;19925;-78
2022/05/02 05:39:23;;;;;;;;;;;;;;;8.00;100.00;101528.41;5062691;28;19924;-78
2022/05/02 05:42:06;;;;;;;;;;;;;;;7.98;100.00;101525.94;5090989;28;20410;-78
2022/05/02 05:44:41;;;;;;;;;;;;;;;7.90;100.00;101530.91;5072473;28;20541;-78
2022/05/02 05:47:29;;;;;;;;;;;;;;;8.04;100.00;101534.16;5105359;28;19935;-79
2022/05/02 05:50:11;;;;;;;;;;;;;;;8.18;100.00;101528.22;5109362;28;19928;-78
2022/05/02 05:52:51;;;;;;;;;;;;;;;8.26;100.00;101527.00;5072984;28;19924;-78
2022/05/02 05:55:22;;;;;;;;;;;;;;;8.36;100.00;101517.41;5106236;28;20368;-78
2022/05/02 05:57:53;;;;;;;;;;;;;;;8.45;100.00;101524.94;5072217;28;19928;-79
2022/05/02 06:00:25;;;;;;;;;;;;;;;8.55;100.00;101529.72;5111308;28;19935;-78
2022/05/02 06:03:02;;;;;;;;;;;;;;;8.53;100.00;101531.03;5091361;28;19931;-78
2022/05/02 06:05:39;;;;;;;;;;;;;;;8.66;100.00;101534.25;5091844;28;19927;-79
2022/05/02 06:08:09;;;;;;;;;;;;;;;8.67;100.00;101524.19;5088401;28;19925;-79
2022/05/02 06:10:37;;;;;;;;;;;;;;;8.77;100.00;101526.25;5085941;28;19924;-79
2022/05/02 06:13:10;;;;;;;;;;;;;;;8.76;100.00;101530.06;5069238;28;20273;-79
2022/05/02 06:18:52;;;;;;;;;;;;;;;8.85;100.00;101531.28;5047490;28;20476;-78
2022/05/02 06:21:21;;;;;;;;;;;;;;;8.87;100.00;101542.72;5086549;28;19943;-78
2022/05/02 06:23:51;;;;;;;;;;;;;;;8.96;100.00;101537.69;5070554;28;19925;-79
2022/05/02 06:26:22;;;;;;;;;;;;;;;8.96;100.00;101543.13;5067906;28;19971;-79
2022/05/02 06:28:55;;;;;;;;;;;;;;;9.12;100.00;101539.56;5091559;28;19928;-78
2022/05/02 06:31:27;;;;;;;;;;;;;;;9.23;100.00;101532.41;5072301;28;20332;-79
2022/05/02 06:33:57;;;;;;;;;;;;;;;9.21;100.00;101539.16;5080852;28;20106;-79
2022/05/02 06:36:47;;;;;;;;;;;;;;;9.31;100.00;101533.88;5090424;28;19932;-79
2022/05/02 06:39:20;;;;;;;;;;;;;;;9.48;100.00;101534.63;5057297;28;20272;-78
2022/05/02 06:41:58;;;;;;;;;;;;;;;9.58;100.00;101535.84;5067283;28;19932;-78
2022/05/02 06:44:36;;;;;;;;;;;;;;;9.78;100.00;101530.66;5071200;28;19948;-79
2022/05/02 06:47:20;;;;;;;;;;;;;;;9.94;100.00;101537.09;5063400;28;19932;-78
2022/05/02 06:50:03;;;;;;;;;;;;;;;10.01;100.00;101526.03;5063997;28;19943;-79
2022/05/02 06:52:34;;;;;;;;;;;;;;;10.01;100.00;101520.59;5056778;28;19939;-80
2022/05/02 06:55:21;;;;;;;;;;;;;;;10.03;100.00;101532.84;5056184;28;19931;-78
2022/05/02 06:57:56;;;;;;;;;;;;;;;10.03;100.00;101529.31;5054150;28;19932;-80
2022/05/02 07:00:33;;;;;;;;;;;;;;;10.29;100.00;101532.28;5063007;28;19932;-77
2022/05/02 07:03:28;;;;;;;;;;;;;;;10.41;100.00;101532.19;5083086;28;20308;-78
2022/05/02 07:06:01;;;;;;;;;;;;;;;10.46;100.00;101532.22;5079039;28;20415;-79
2022/05/02 07:08:33;;;;;;;;;;;;;;;10.44;84.93;101531.66;5073865;28;19940;-79
2022/05/02 07:11:11;;;;;;;;;;;;;;;10.59;93.18;101529.06;5080191;28;20711;-79
2022/05/02 07:13:50;;;;;;;;;;;;;;;10.71;100.00;101520.75;5062103;28;19979;-79
2022/05/02 07:16:22;;;;;;;;;;;;;;;10.75;85.34;101516.41;5063634;28;19939;-78
2022/05/02 07:19:03;;;;;;;;;;;;;;;10.97;99.92;101516.31;5084809;28;19927;-78
2022/05/02 07:21:40;;;;;;;;;;;;;;;10.85;100.00;101518.41;5066282;28;19927;-79
2022/05/02 07:24:17;;;;;;;;;;;;;;;11.29;97.44;101507.22;5062907;28;19932;-78
2022/05/02 07:26:51;;;;;;;;;;;;;;;11.28;80.39;101502.84;5061025;28;20388;-78
2022/05/02 07:29:30;;;;;;;;;;;;;;;11.43;100.00;101513.03;5081833;28;19932;-78
2022/05/02 07:32:01;;;;;;;;;;;;;;;11.40;83.83;101508.09;5085577;28;20387;-78
2022/05/02 07:34:30;;;;;;;;;;;;;;;11.47;73.58;101505.97;5062663;28;19939;-79
2022/05/02 07:36:59;;;;;;;;;;;;;;;11.70;89.69;101510.16;5094060;28;19932;-78
2022/05/02 07:39:29;;;;;;;;;;;;;;;11.63;79.14;101506.84;5053673;28;19943;-78
2022/05/02 07:42:00;;;;;;;;;;;;;;;11.78;81.14;101503.38;5061564;28;19939;-79
2022/05/02 07:44:31;;;;;;;;;;;;;;;11.87;84.65;101507.19;5096374;28;19931;-79
2022/05/02 07:47:02;;;;;;;;;;;;;;;11.82;71.86;101504.47;5084332;28;19932;-79
2022/05/02 07:49:33;;;;;;;;;;;;;;;11.93;68.16;101510.75;5079110;28;20026;-79
2022/05/02 07:52:09;;;;;;;;;;;;;;;12.11;63.68;101506.75;5077158;28;19939;-78
2022/05/02 07:54:41;;;;;;;;;;;;;;;12.10;73.11;101517.91;5082930;28;19941;-78
2022/05/02 07:57:15;;;;;;;;;;;;;;;12.17;66.70;101510.31;5059790;28;20584;-78
2022/05/02 07:59:55;;;;;;;;;;;;;;;12.23;68.51;101515.50;5056690;28;19954;-78
2022/05/02 08:02:26;;;;;;;;;;;;;;;12.31;66.13;101511.41;5062326;28;19955;-79
2022/05/02 08:05:01;;;;;;;;;;;;;;;12.37;68.33;101510.34;5061142;28;20435;-79
2022/05/02 08:07:32;;;;;;;;;;;;;;;12.45;62.92;101508.97;5082425;28;19928;-80
2022/05/02 08:10:18;;;;;;;;;;;;;;;12.59;78.33;101507.34;5063550;28;20293;-78
2022/05/02 08:12:53;;;;;;;;;;;;;;;12.59;79.03;101501.91;5046521;28;19956;-79
2022/05/02 08:15:27;;;;;;;;;;;;;;;12.56;68.95;101505.16;5037305;28;19933;-80
2022/05/02 08:18:14;;;;;;;;;;;;;;;12.74;66.28;101500.25;5033222;28;19933;-78
2022/05/02 08:20:47;;;;;;;;;;;;;;;12.79;66.93;101502.13;5067296;28;19939;-80
2022/05/02 08:29:30;;;;;;;;;;;;;;;12.99;68.80;101496.66;5032203;28;20498;-77
2022/05/02 08:32:06;;;;;;;;;;;;;;;13.01;62.77;101497.22;5031889;28;20474;-79
2022/05/02 08:34:38;;;;;;;;;;;;;;;12.91;59.72;101495.31;5031343;28;20031;-79
2022/05/02 08:37:16;;;;;;;;;;;;;;;13.08;63.74;101491.47;5030808;28;19932;-79
2022/05/02 08:39:50;;;;;;;;;;;;;;;13.19;76.31;101487.59;5065902;28;20019;-79
2022/05/02 08:42:41;;;;;;;;;;;;;;;13.29;72.02;101483.22;5034689;28;19932;-80
2022/05/02 08:45:27;;;;;;;;;;;;;;;13.22;63.73;101483.50;5066926;28;19932;-80
2022/05/02 08:48:25;;;;;;;;;;;;;;;13.27;69.78;101480.72;5029049;28;19937;-77
2022/05/02 08:51:15;;;;;;;;;;;;;;;13.21;54.23;101479.13;5034103;28;19933;-80
2022/05/02 08:54:03;;;;;;;;;;;;;;;13.53;63.53;101486.13;5029874;28;19940;-79
2022/05/02 08:56:57;;;;;;;;;;;;;;;13.56;59.46;101477.38;5035717;28;19955;-79
2022/05/02 08:59:36;;;;;;;;;;;;;;;13.36;53.69;101470.88;5029767;28;19940;-79
2022/05/02 09:02:18;;;;;;;;;;;;;;;13.25;58.92;101472.81;5030866;28;19933;-78
2022/05/02 09:05:05;;;;;;;;;;;;;;;13.44;59.31;101473.03;5030989;28;19928;-78
2022/05/02 09:07:53;;;;;;;;;;;;;;;13.41;62.90;101467.34;5034125;28;20317;-78
2022/05/02 09:10:23;;;;;;;;;;;;;;;13.53;72.87;101465.06;5033582;28;19956;-78
2022/05/02 09:13:15;;;;;;;;;;;;;;;13.68;68.09;101458.72;5030201;28;20463;-78
2022/05/02 09:15:58;;;;;;;;;;;;;;;13.69;57.33;101462.28;5022222;28;19933;-82
2022/05/02 09:18:50;;;;;;;;;;;;;;;13.26;56.04;101455.31;5036829;28;19935;-78
2022/05/02 09:21:24;;;;;;;;;;;;;;;13.46;65.94;101456.34;5033773;28;19933;-79
2022/05/02 09:24:15;;;;;;;;;;;;;;;13.43;59.47;101448.72;5028206;28;19932;-79
2022/05/02 09:26:59;;;;;;;;;;;;;;;13.59;62.16;101453.03;5032021;28;19936;-76
2022/05/02 09:29:47;;;;;;;;;;;;;;;13.48;59.83;101445.13;5033766;28;19933;-79
2022/05/02 09:32:18;;;;;;;;;;;;;;;13.70;59.37;101452.94;5030158;28;20010;-79
2022/05/02 09:34:47;;;;;;;;;;;;;;;13.98;64.70;101442.41;5026750;28;19940;-79
2022/05/02 09:37:21;;;;;;;;;;;;;;;14.40;69.28;101441.81;5062952;28;19940;-79
2022/05/02 09:39:59;;;;;;;;;;;;;;;14.65;59.79;101441.88;5027394;28;20026;-78
2022/05/02 09:42:44;;;;;;;;;;;;;;;14.96;59.21;101434.97;5026830;28;19933;-77
2022/05/02 09:51:22;;;;;;;;;;;;;;;15.74;65.22;101414.81;5020515;28;19940;-78
2022/05/02 09:54:03;;;;;;;;;;;;;;;15.56;52.79;101411.75;5023239;28;19933;-78
2022/05/02 09:56:43;;;;;;;;;;;;;;;15.05;52.07;101401.44;5023613;28;19933;-79
2022/05/02 09:59:22;;;;;;;;;;;;;;;15.14;52.68;101407.94;5030572;28;19933;-78
2022/05/02 10:01:52;;;;;;;;;;;;;;;15.22;59.98;101400.97;5031409;28;19932;-77
2022/05/02 10:04:31;;;;;;;;;;;;;;;14.77;50.81;101410.25;5048626;28;19963;-78
2022/05/02 10:07:07;;;;;;;;;;;;;;;14.51;55.40;101406.09;5033868;28;19940;-78
2022/05/02 10:09:45;;;;;;;;;;;;;;;14.26;58.64;101408.78;5027808;28;20381;-79
2022/05/02 10:12:23;;;;;;;;;;;;;;;13.95;57.44;101414.50;5029042;28;19939;-78
2022/05/02 10:14:57;;;;;;;;;;;;;;;13.70;58.15;101411.94;5035842;28;20294;-78
2022/05/02 10:17:41;;;;;;;;;;;;;;;13.51;60.53;101414.53;5034475;28;20297;-77
2022/05/02 10:20:16;;;;;;;;;;;;;;;13.86;54.90;101402.53;5035192;28;19933;-78
2022/05/02 10:22:59;;;;;;;;;;;;;;;13.82;62.18;101404.19;5018569;28;19932;-78
2022/05/02 10:25:35;;;;;;;;;;;;;;;14.25;56.71;101396.22;5033297;28;20716;-78
2022/05/02 10:28:24;;;;;;;;;;;;;;;14.66;56.71;101384.06;5030325;28;19948;-78
2022/05/02 10:30:54;;;;;;;;;;;;;;;14.75;53.44;101390.56;5035751;28;19933;-79
2022/05/02 10:33:32;;;;;;;;;;;;;;;14.70;61.24;101379.63;5064576;28;19936;-79
2022/05/02 10:36:00;;;;;;;;;;;;;;;15.11;58.07;101376.44;5027553;28;19945;-77
2022/05/02 10:38:35;;;;;;;;;;;;;;;14.92;52.02;101378.31;5023726;28;19940;-78
2022/05/02 10:41:12;;;;;;;;;;;;;;;15.19;54.11;101376.88;5024476;28;19944;-78
2022/05/02 10:43:48;;;;;;;;;;;;;;;15.08;52.61;101376.19;5028421;28;19940;-78
2022/05/02 10:46:22;;;;;;;;;;;;;;;15.10;52.30;101374.78;5023894;28;19933;-78
2022/05/02 10:48:51;;;;;;;;;;;;;;;14.98;49.61;101368.09;5032534;28;19936;-78
2022/05/02 10:51:31;;;;;;;;;;;;;;;14.70;48.97;101365.13;5027548;28;19932;-78
2022/05/02 10:54:08;;;;;;;;;;;;;;;14.55;49.14;101368.81;5035596;28;20305;-77
2022/05/02 10:56:45;;;;;;;;;;;;;;;14.92;52.27;101356.38;5029383;28;19929;-78
2022/05/02 10:59:23;;;;;;;;;;;;;;;14.86;49.20;101358.38;5029277;28;19940;-78
2022/05/02 11:02:15;;;;;;;;;;;;;;;14.81;52.16;101352.94;5043341;28;19933;-78
2022/05/02 11:04:52;;;;;;;;;;;;;;;14.84;54.10;101349.63;5032240;28;19933;-78
2022/05/02 11:07:26;;;;;;;;;;;;;;;15.18;50.13;101345.06;5026652;28;19933;-78
2022/05/02 11:10:01;;;;;;;;;;;;;;;15.68;58.06;101350.97;5031032;28;19939;-79
2022/05/02 11:12:38;;;;;;;;;;;;;;;15.60;47.34;101335.16;5026250;28;19987;-77
2022/05/02 11:15:14;;;;;;;;;;;;;;;15.45;49.33;101339.78;5025860;28;20312;-77
2022/05/02 11:18:07;;;;;;;;;;;;;;;15.22;46.33;101340.63;5020908;28;19933;-79
2022/05/02 11:20:46;;;;;;;;;;;;;;;15.57;48.32;101339.31;5027479;28;19936;-78
2022/05/02 11:23:27;;;;;;;;;;;;;;;15.32;46.22;101339.72;5030019;28;19940;-78
2022/05/02 11:26:05;;;;;;;;;;;;;;;15.64;45.98;101330.72;5036097;28;19983;-79
2022/05/02 11:28:47;;;;;;;;;;;;;;;15.89;46.98;101332.25;5029221;28;19940;-79
2022/05/02 11:31:23;;;;;;;;;;;;;;;15.95;49.88;101332.97;5022436;28;20777;-78
2022/05/02 11:33:59;;;;;;;;;;;;;;;16.10;45.84;101324.50;4999260;28;19956;-78
2022/05/02 11:36:37;;;;;;;;;;;;;;;16.20;48.29;101326.25;5027986;28;19928;-78
2022/05/02 11:39:06;;;;;;;;;;;;;;;16.63;47.45;101317.75;5029114;28;21238;-78
2022/05/02 11:41:41;;;;;;;;;;;;;;;16.64;45.43;101313.88;5023848;28;19937;-79
2022/05/02 11:44:17;;;;;;;;;;;;;;;16.30;46.31;101309.56;5029103;28;19932;-78
2022/05/02 11:46:57;;;;;;;;;;;;;;;16.63;47.11;101311.44;5031763;28;19940;-78
2022/05/02 11:49:34;;;;;;;;;;;;;;;16.84;49.41;101307.13;5026178;28;19939;-78
2022/05/02 11:52:02;;;;;;;;;;;;;;;16.51;43.26;101305.66;5021366;28;20790;-76
2022/05/02 11:54:36;;;;;;;;;;;;;;;16.41;44.49;101304.72;5024102;28;19940;-77
2022/05/02 11:57:16;;;;;;;;;;;;;;;16.83;44.31;101304.69;5022650;28;20464;-77
2022/05/02 11:59:52;;;;;;;;;;;;;;;16.64;45.17;101308.38;5021498;28;19932;-78
2022/05/02 12:02:32;;;;;;;;;;;;;;;16.72;43.69;101292.28;5024181;28;19939;-78
2022/05/02 12:05:12;;;;;;;;;;;;;;;16.76;45.11;101296.88;5028648;28;19933;-78
2022/05/02 12:07:50;;;;;;;;;;;;;;;16.89;47.66;101294.44;5027688;28;20596;-79
2022/05/02 12:10:33;;;;;;;;;;;;;;;16.78;43.15;101296.59;5023563;28;19933;-77
2022/05/02 12:13:07;;;;;;;;;;;;;;;16.36;42.38;101290.25;5025964;28;20560;-78
2022/05/02 12:16:00;;;;;;;;;;;;;;;16.38;43.02;101286.09;5021992;28;19932;-77
2022/05/02 12:18:40;;;;;;;;;;;;;;;16.55;43.30;101282.75;5019303;28;19932;-77
2022/05/02 12:21:21;;;;;;;;;;;;;;;16.35;42.63;101280.38;5019556;28;19933;-78
2022/05/02 12:23:55;;;;;;;;;;;;;;;16.84;45.27;101279.66;5018808;28;19933;-78
2022/05/02 12:26:28;;;;;;;;;;;;;;;16.57;43.28;101268.69;5020070;28;19940;-78
2022/05/02 12:29:04;;;;;;;;;;;;;;;16.54;45.60;101267.34;5020966;28;19934;-78
2022/05/02 12:31:39;;;;;;;;;;;;;;;16.97;44.01;101272.56;5025685;28;19935;-78
2022/05/02 12:34:12;;;;;;;;;;;;;;;16.95;43.21;101266.53;4996110;28;19929;-78
2022/05/02 12:36:51;;;;;;;;;;;;;;;17.18;44.60;101258.34;5019928;28;19932;-78
2022/05/02 12:39:25;;;;;;;;;;;;;;;17.27;40.69;101256.44;5018095;28;19933;-79
2022/05/02 12:42:02;;;;;;;;;;;;;;;17.15;44.30;101262.53;5023794;28;19936;-78
2022/05/02 12:44:37;;;;;;;;;;;;;;;17.45;43.25;101260.16;5022047;28;20019;-79
2022/05/02 12:47:15;;;;;;;;;;;;;;;17.64;42.53;101251.72;5023722;28;19932;-79
2022/05/02 12:49:55;;;;;;;;;;;;;;;17.43;41.77;101256.13;5020118;28;19955;-77
2022/05/02 12:52:28;;;;;;;;;;;;;;;17.22;42.05;101242.84;5015523;28;19932;-78
2022/05/02 12:55:01;;;;;;;;;;;;;;;17.19;43.13;101253.66;5020556;28;19933;-79
2022/05/02 13:00:32;;;;;;;;;;;;;;;16.99;43.71;101242.00;5021148;28;19939;-79
2022/05/02 13:03:03;;;;;;;;;;;;;;;16.76;41.78;101235.59;5025685;28;19928;-78
2022/05/02 13:05:39;;;;;;;;;;;;;;;16.88;43.34;101244.13;5035070;28;19940;-79
2022/05/02 13:08:13;;;;;;;;;;;;;;;17.25;44.26;101239.47;5018018;28;19933;-77
2022/05/02 13:10:47;;;;;;;;;;;;;;;17.37;44.25;101236.13;5016088;28;19987;-78
2022/05/02 13:13:20;;;;;;;;;;;;;;;16.72;41.66;101231.84;5017254;28;19932;-76
2022/05/02 13:15:53;;;;;;;;;;;;;;;17.17;42.92;101234.69;5015454;28;19933;-77
2022/05/02 13:18:28;;;;;;;;;;;;;;;17.20;43.17;101231.31;5017567;28;19932;-78
2022/05/02 13:21:00;;;;;;;;;;;;;;;17.09;42.72;101229.94;5019885;28;19936;-79
2022/05/02 13:23:37;;;;;;;;;;;;;;;17.03;43.47;101226.50;5056536;28;19933;-79
2022/05/02 13:26:23;;;;;;;;;;;;;;;17.09;42.24;101219.75;5023979;28;19933;-78
2022/05/02 13:28:59;;;;;;;;;;;;;;;16.98;41.99;101226.63;5017412;28;19943;-79
2022/05/02 13:31:36;;;;;;;;;;;;;;;17.03;42.91;101214.66;5019466;28;19933;-80
2022/05/02 13:34:06;;;;;;;;;;;;;;;16.92;43.04;101214.91;5027032;28;19933;-78
2022/05/02 13:36:41;;;;;;;;;;;;;;;16.72;42.21;101210.66;5018128;28;19932;-80